VNY weather

Van Nuys Airport
Van Nuys, California, United States

Public forecast

Using degrees Fahrenheit for public forecast. Weather courtesy of forecast.io.

Current aviation weather report (METAR) for Van Nuys Airport

Retrieved 2020/04/06 13:57 UTC (13 minutes ago):

KVNY 061357Z VRB05KT 2SM +RA BR FEW009 BKN030 OVC046 12/10 A2981 RMK AO2 P0010 T01220100

Aviation forecast (TAF) for Van Nuys Airport

Retrieved 2020/04/06 12:46 UTC (1 hour ago):

TAF KVNY 061144Z 0612/0712 15012KT 2SM RA BR SCT008 BKN016 FM061600 VRB03KT P6SM -RA BKN015 OVC025 FM062100 18010KT 5SM -SHRA BR BKN015 OVC025 FM070400 VRB03KT P6SM -SHRA BKN025